Time;durP1;ratioP1;P1;durP2;ratioP2;P2;SDS_P1;SDS_P2;PMS_P1;PMS_P2;Temp;Humidity;BMP_temperature;BMP_pressure;BME280_temperature;BME280_humidity;BME280_pressure;Samples;Min_cycle;Max_cycle;Signal;HPM_P1;HPM_P2
2023/01/05 00:01:48;;;;;;;39.58;26.23;;;7.60;99.90;;;;;;4975884;28;20054;-92
2023/01/05 00:04:14;;;;;;;34.55;24.67;;;7.60;99.90;;;;;;5060287;28;20062;-93
2023/01/05 00:06:41;;;;;;;37.30;25.55;;;7.60;99.90;;;;;;5060255;28;20042;-92
2023/01/05 00:09:17;;;;;;;36.28;23.60;;;7.60;99.90;;;;;;4975044;28;20054;-93
2023/01/05 00:24:11;;;;;;;29.63;19.45;;;7.70;99.90;;;;;;4955665;28;20113;-92
2023/01/05 00:26:36;;;;;;;29.50;19.30;;;7.70;99.90;;;;;;4974930;28;20038;-92
2023/01/05 00:29:02;;;;;;;30.33;21.25;;;7.70;99.90;;;;;;4959218;28;20436;-92
2023/01/05 00:31:28;;;;;;;34.20;22.55;;;7.70;99.90;;;;;;4959233;28;20495;-92
2023/01/05 00:33:53;;;;;;;29.80;20.27;;;7.70;99.90;;;;;;4958525;28;20039;-92
2023/01/05 00:36:19;;;;;;;34.88;22.33;;;7.70;99.90;;;;;;4958941;28;20076;-93
2023/01/05 00:38:44;;;;;;;27.83;20.92;;;7.70;99.90;;;;;;4958698;28;20066;-93
2023/01/05 00:44:58;;;;;;;30.60;22.10;;;7.70;99.90;;;;;;4976258;28;20156;-92
2023/01/05 00:48:14;;;;;;;32.15;22.48;;;7.70;99.90;;;;;;4958274;28;20064;-92
2023/01/05 00:50:39;;;;;;;35.42;23.23;;;7.70;99.90;;;;;;5059695;28;20547;-94
2023/01/05 00:53:05;;;;;;;32.97;22.92;;;7.70;99.90;;;;;;4958547;28;20031;-93
2023/01/05 00:55:31;;;;;;;38.10;25.10;;;7.70;99.90;;;;;;4974544;28;20035;-93
2023/01/05 00:57:57;;;;;;;43.35;25.98;;;7.70;99.90;;;;;;4958898;28;20054;-93
2023/01/05 01:00:22;;;;;;;38.97;25.92;;;7.80;99.90;;;;;;4958565;28;20084;-92
2023/01/05 01:02:51;;;;;;;38.67;25.08;;;7.80;99.90;;;;;;4958609;28;20038;-92
2023/01/05 01:05:17;;;;;;;42.97;26.73;;;7.80;99.90;;;;;;4958477;28;20104;-94
2023/01/05 01:07:43;;;;;;;39.40;24.65;;;7.80;99.90;;;;;;4974553;28;20027;-93
2023/01/05 01:10:09;;;;;;;39.83;23.75;;;7.80;99.90;;;;;;4974870;28;20043;-92
2023/01/05 01:13:00;;;;;;;42.28;26.35;;;7.80;99.90;;;;;;4974542;28;20083;-90
2023/01/05 01:15:26;;;;;;;38.95;24.35;;;7.80;99.90;;;;;;4975888;28;20030;-92
2023/01/05 01:17:51;;;;;;;35.67;24.13;;;7.80;99.90;;;;;;4974732;28;20485;-93
2023/01/05 01:20:19;;;;;;;36.47;24.50;;;7.80;99.90;;;;;;4958275;28;20062;-92
2023/01/05 01:22:44;;;;;;;39.05;22.00;;;7.80;99.90;;;;;;4958343;28;20042;-93
2023/01/05 01:25:10;;;;;;;46.50;23.35;;;7.90;99.90;;;;;;4958504;28;20031;-93
2023/01/05 01:27:35;;;;;;;41.13;23.60;;;7.90;99.90;;;;;;4958331;28;20031;-92
2023/01/05 01:30:01;;;;;;;49.17;24.38;;;7.90;99.90;;;;;;4958526;28;20038;-93
2023/01/05 01:32:27;;;;;;;45.85;24.70;;;7.90;99.90;;;;;;4958318;28;20088;-93
2023/01/05 01:34:54;;;;;;;93.95;27.67;;;7.90;99.90;;;;;;4957820;28;20027;-93
2023/01/05 01:37:20;;;;;;;132.40;30.27;;;7.90;99.90;;;;;;4958027;28;20042;-93
2023/01/05 01:39:49;;;;;;;380.13;48.05;;;7.90;99.90;;;;;;4973989;28;20058;-93
2023/01/05 01:42:16;;;;;;;493.83;49.88;;;7.90;99.90;;;;;;4958111;28;20037;-93
2023/01/05 01:44:47;;;;;;;35.13;21.02;;;7.90;99.90;;;;;;4957993;28;20030;-92
2023/01/05 01:47:18;;;;;;;96.97;23.90;;;7.90;99.90;;;;;;4973342;28;20118;-92
2023/01/05 01:49:44;;;;;;;42.40;21.13;;;7.90;99.90;;;;;;4974123;28;20351;-92
2023/01/05 01:52:10;;;;;;;39.40;18.77;;;7.90;99.90;;;;;;4958527;28;20030;-92
2023/01/05 01:54:37;;;;;;;110.70;24.30;;;7.90;99.90;;;;;;4957919;28;20034;-92
2023/01/05 01:57:04;;;;;;;167.32;25.95;;;7.90;99.90;;;;;;4958280;28;20030;-92
2023/01/05 01:59:30;;;;;;;342.60;35.10;;;7.90;99.90;;;;;;4958123;28;20042;-92
2023/01/05 02:02:00;;;;;;;34.45;17.50;;;7.90;99.90;;;;;;4957962;28;20122;-91
2023/01/05 02:04:28;;;;;;;83.32;20.90;;;7.90;99.90;;;;;;4958181;28;20026;-92
2023/01/05 02:06:55;;;;;;;146.43;24.77;;;7.90;99.90;;;;;;4957983;28;20057;-92
2023/01/05 02:09:20;;;;;;;22.38;14.13;;;7.90;99.90;;;;;;4957912;28;20049;-92
2023/01/05 02:11:57;;;;;;;28.17;15.77;;;7.90;99.90;;;;;;4958133;28;20023;-92
2023/01/05 02:14:57;;;;;;;30.73;14.35;;;8.00;99.90;;;;;;4957649;28;20129;-92
2023/01/05 02:17:37;;;;;;;20.50;12.43;;;8.00;99.90;;;;;;5075044;28;20117;-93
2023/01/05 02:20:39;;;;;;;21.90;12.87;;;8.00;99.90;;;;;;4957058;28;20031;-93
2023/01/05 02:23:26;;;;;;;49.28;15.25;;;8.00;99.90;;;;;;5017351;28;20040;-93
2023/01/05 02:26:06;;;;;;;29.92;12.77;;;8.00;99.90;;;;;;5074888;28;20035;-93
2023/01/05 02:28:54;;;;;;;20.40;12.02;;;7.90;99.90;;;;;;4957025;28;20038;-93
2023/01/05 02:31:33;;;;;;;16.50;11.40;;;8.00;99.90;;;;;;4957239;28;20038;-93
2023/01/05 02:34:25;;;;;;;18.70;12.15;;;8.00;99.90;;;;;;5074994;28;20099;-93
2023/01/05 02:37:11;;;;;;;25.40;12.50;;;8.00;99.90;;;;;;4958029;28;20045;-92
2023/01/05 02:40:04;;;;;;;26.67;11.88;;;8.00;99.90;;;;;;4957473;28;20098;-93
2023/01/05 02:42:37;;;;;;;13.65;8.68;;;8.00;99.90;;;;;;4957746;28;20035;-93
2023/01/05 02:45:06;;;;;;;10.02;6.88;;;8.00;99.90;;;;;;4957056;28;20031;-92
2023/01/05 02:47:38;;;;;;;10.77;6.78;;;8.00;99.90;;;;;;4956794;28;20175;-93
2023/01/05 02:50:12;;;;;;;11.98;7.72;;;8.10;99.90;;;;;;4972755;28;20057;-92
2023/01/05 02:53:07;;;;;;;13.90;7.72;;;8.10;99.90;;;;;;4956571;28;20027;-92
2023/01/05 02:55:45;;;;;;;23.27;9.68;;;8.10;99.90;;;;;;5074399;28;20043;-93
2023/01/05 02:58:40;;;;;;;155.93;16.05;;;8.10;99.90;;;;;;4958367;28;20035;-92
2023/01/05 03:01:16;;;;;;;13.88;8.10;;;8.10;99.90;;;;;;4960324;28;20027;-93
2023/01/05 03:03:51;;;;;;;10.65;6.78;;;8.10;99.90;;;;;;4960583;28;20394;-93
2023/01/05 03:06:33;;;;;;;8.65;5.57;;;8.10;99.90;;;;;;4959800;28;20056;-93
2023/01/05 03:09:02;;;;;;;16.70;10.20;;;8.10;99.90;;;;;;4959816;28;20023;-94
2023/01/05 03:14:59;;;;;;;18.40;10.60;;;8.10;99.90;;;;;;4975607;28;20039;-93
2023/01/05 03:17:45;;;;;;;17.48;10.80;;;8.10;99.90;;;;;;4976220;28;20027;-91
2023/01/05 03:20:17;;;;;;;21.17;10.82;;;8.10;99.90;;;;;;4975768;28;20031;-93
2023/01/05 03:37:13;;;;;;;17.63;11.30;;;8.20;99.90;;;;;;4975709;28;20038;-93
2023/01/05 03:39:41;;;;;;;22.33;11.10;;;8.30;99.90;;;;;;4959454;28;20031;-94
2023/01/05 03:42:10;;;;;;;15.88;10.00;;;8.30;99.90;;;;;;4975849;28;20107;-93
2023/01/05 03:44:38;;;;;;;16.05;10.52;;;8.30;99.90;;;;;;4975203;28;20390;-94
2023/01/05 03:47:04;;;;;;;17.90;10.07;;;8.20;99.90;;;;;;4975582;28;20080;-93
2023/01/05 03:49:30;;;;;;;15.68;9.63;;;8.20;99.90;;;;;;4958960;28;20498;-94
2023/01/05 03:51:57;;;;;;;15.63;9.38;;;8.20;99.90;;;;;;4959118;28;20482;-93
2023/01/05 03:54:24;;;;;;;16.25;10.00;;;8.30;99.90;;;;;;4959243;28;20030;-93
2023/01/05 03:56:50;;;;;;;13.80;9.02;;;8.30;99.90;;;;;;4959245;28;20053;-94
2023/01/05 03:59:16;;;;;;;12.13;8.63;;;8.30;99.90;;;;;;4959120;28;20482;-93
2023/01/05 04:01:42;;;;;;;10.68;7.63;;;8.30;99.90;;;;;;4958575;28;20390;-94
2023/01/05 04:04:12;;;;;;;10.43;6.13;;;8.30;99.90;;;;;;4959545;28;20118;-93
2023/01/05 04:06:38;;;;;;;11.80;6.53;;;8.30;99.90;;;;;;4975056;28;20041;-93
2023/01/05 04:09:04;;;;;;;14.40;6.78;;;8.30;99.90;;;;;;4958457;28;20023;-91
2023/01/05 04:11:33;;;;;;;10.00;5.10;;;8.30;99.90;;;;;;4959926;28;20494;-92
2023/01/05 04:14:03;;;;;;;16.30;5.18;;;8.20;99.90;;;;;;4959753;28;20026;-92
2023/01/05 04:16:33;;;;;;;12.07;4.07;;;8.20;99.90;;;;;;4959459;28;20035;-92
2023/01/05 04:19:04;;;;;;;17.33;4.60;;;8.10;99.90;;;;;;4975816;28;20031;-93
2023/01/05 04:21:30;;;;;;;18.73;6.40;;;8.20;99.90;;;;;;4959180;28;20023;-93
2023/01/05 04:23:56;;;;;;;22.35;4.65;;;8.20;99.90;;;;;;4959209;28;20023;-93
2023/01/05 04:26:23;;;;;;;10.02;4.28;;;8.10;99.90;;;;;;4959485;28;20117;-93
2023/01/05 04:28:50;;;;;;;12.30;4.78;;;8.10;99.90;;;;;;4959195;28;20027;-92
2023/01/05 04:31:18;;;;;;;18.83;3.85;;;8.10;99.90;;;;;;4959406;28;20027;-93
2023/01/05 04:33:44;;;;;;;16.45;3.78;;;8.10;99.90;;;;;;4959370;28;20026;-93
2023/01/05 04:36:14;;;;;;;15.23;3.53;;;8.10;99.90;;;;;;4975152;28;20104;-93
2023/01/05 04:38:40;;;;;;;12.50;3.30;;;8.20;99.90;;;;;;4959272;28;20478;-92
2023/01/05 04:41:07;;;;;;;18.88;3.00;;;8.20;99.90;;;;;;4959601;28;20065;-93
2023/01/05 04:43:33;;;;;;;15.85;3.17;;;8.20;99.90;;;;;;4958851;28;20118;-92
2023/01/05 04:46:00;;;;;;;18.20;2.75;;;8.10;99.90;;;;;;4977226;28;20031;-92
2023/01/05 04:48:27;;;;;;;17.80;3.00;;;8.10;99.90;;;;;;4958429;28;20037;-92
2023/01/05 04:50:55;;;;;;;15.88;3.63;;;8.10;99.90;;;;;;4957856;28;20027;-91
2023/01/05 04:53:26;;;;;;;22.88;3.13;;;8.10;99.90;;;;;;4958673;28;20027;-91
2023/01/05 04:55:52;;;;;;;18.13;2.67;;;8.10;99.90;;;;;;4957674;28;20035;-92
2023/01/05 04:58:20;;;;;;;18.10;2.63;;;8.10;99.90;;;;;;4957499;28;20027;-92
2023/01/05 05:00:49;;;;;;;20.45;2.63;;;8.10;99.90;;;;;;4957206;28;20490;-92
2023/01/05 05:03:15;;;;;;;14.38;2.42;;;8.10;99.90;;;;;;4957118;28;20030;-92
2023/01/05 05:05:48;;;;;;;8.95;2.10;;;8.00;99.90;;;;;;4957232;28;20038;-92
2023/01/05 05:08:14;;;;;;;16.70;2.08;;;8.00;99.90;;;;;;4973206;28;20030;-93
2023/01/05 05:10:40;;;;;;;23.42;2.30;;;7.90;99.90;;;;;;4957120;28;20027;-92
2023/01/05 05:13:07;;;;;;;22.60;3.40;;;7.90;99.90;;;;;;4957073;28;20031;-92
2023/01/05 05:15:33;;;;;;;17.50;2.60;;;7.90;99.90;;;;;;4956668;28;20462;-91
2023/01/05 05:18:01;;;;;;;16.73;2.40;;;7.90;99.90;;;;;;4957118;28;20031;-92
2023/01/05 05:20:27;;;;;;;26.02;3.40;;;7.90;99.90;;;;;;4956022;28;20045;-92
2023/01/05 05:22:52;;;;;;;11.40;2.83;;;7.80;99.90;;;;;;4956619;28;20084;-91
2023/01/05 05:26:07;;;;;;;20.98;2.83;;;7.80;99.90;;;;;;4957516;28;20393;-91
2023/01/05 05:28:33;;;;;;;13.60;3.03;;;7.70;99.90;;;;;;5057339;28;20031;-93
2023/01/05 05:30:59;;;;;;;24.92;3.35;;;7.50;99.90;;;;;;4972900;28;20100;-92
2023/01/05 05:33:25;;;;;;;20.23;3.60;;;7.50;99.90;;;;;;4956741;28;20027;-92
2023/01/05 05:35:51;;;;;;;18.50;2.70;;;7.50;99.90;;;;;;4956602;28;20031;-91
2023/01/05 05:38:17;;;;;;;19.38;2.30;;;7.50;99.90;;;;;;4956334;28;20031;-91
2023/01/05 05:40:43;;;;;;;23.00;3.65;;;7.50;99.90;;;;;;4956330;28;20035;-91
2023/01/05 05:43:08;;;;;;;14.60;2.97;;;7.60;99.90;;;;;;4956290;28;20050;-92
2023/01/05 05:45:34;;;;;;;24.23;3.00;;;7.50;99.90;;;;;;4972418;28;20122;-92
2023/01/05 05:48:00;;;;;;;25.63;3.75;;;7.60;99.90;;;;;;4972098;28;20026;-91
2023/01/05 05:50:26;;;;;;;19.80;3.17;;;7.50;99.90;;;;;;4955774;28;20474;-92
2023/01/05 05:52:52;;;;;;;20.17;2.70;;;7.50;99.90;;;;;;4972097;28;20035;-91
2023/01/05 05:55:17;;;;;;;23.05;4.03;;;7.50;99.90;;;;;;4956010;28;20475;-91
2023/01/05 05:57:43;;;;;;;21.00;3.33;;;7.40;99.90;;;;;;4971941;28;20038;-91
2023/01/05 06:01:02;;;;;;;22.88;3.05;;;7.40;99.90;;;;;;4972090;28;20039;-91
2023/01/05 06:03:28;;;;;;;21.42;2.70;;;7.40;99.90;;;;;;5056567;28;20364;-92
2023/01/05 06:05:53;;;;;;;24.63;2.85;;;7.40;99.90;;;;;;4955858;28;20023;-91
2023/01/05 06:08:41;;;;;;;26.77;4.50;;;7.40;99.90;;;;;;4955647;28;20027;-92
2023/01/05 06:11:07;;;;;;;20.23;3.30;;;7.40;99.90;;;;;;4973845;28;20027;-91
2023/01/05 06:13:32;;;;;;;21.23;3.20;;;7.40;99.90;;;;;;4956159;28;20038;-92
2023/01/05 06:15:58;;;;;;;9.55;2.33;;;7.40;99.90;;;;;;4971740;28;20104;-91
2023/01/05 06:18:24;;;;;;;22.60;3.67;;;7.40;99.90;;;;;;4971796;28;20478;-91
2023/01/05 06:20:49;;;;;;;24.50;3.45;;;7.40;99.90;;;;;;4955575;28;20042;-91
2023/01/05 06:23:15;;;;;;;19.23;2.72;;;7.40;99.90;;;;;;4955770;28;20066;-92
2023/01/05 06:25:41;;;;;;;23.05;3.15;;;7.40;99.90;;;;;;4971588;28;20066;-91
2023/01/05 06:28:07;;;;;;;24.95;3.50;;;7.40;99.90;;;;;;4955572;28;20041;-91
2023/01/05 06:30:33;;;;;;;20.23;2.50;;;7.40;99.90;;;;;;4955813;28;20117;-91
2023/01/05 06:32:58;;;;;;;20.63;3.10;;;7.40;99.90;;;;;;4957872;28;20061;-91
2023/01/05 06:35:24;;;;;;;24.83;3.00;;;7.50;99.90;;;;;;4958936;28;20062;-89
2023/01/05 06:37:50;;;;;;;17.63;3.78;;;7.50;99.90;;;;;;4959155;28;20058;-91
2023/01/05 06:40:15;;;;;;;18.48;3.47;;;7.50;99.90;;;;;;4959049;28;20035;-90
2023/01/05 06:42:42;;;;;;;14.25;2.58;;;7.50;99.90;;;;;;4958891;28;20455;-92
2023/01/05 06:45:11;;;;;;;15.88;2.75;;;7.50;99.90;;;;;;4958929;28;20462;-91
2023/01/05 06:47:37;;;;;;;11.52;1.90;;;7.50;99.90;;;;;;4958753;28;20485;-91
2023/01/05 06:50:03;;;;;;;13.15;1.92;;;7.50;99.90;;;;;;4958725;28;20097;-92
2023/01/05 06:52:28;;;;;;;19.88;3.20;;;7.50;99.90;;;;;;4958506;28;20054;-91
2023/01/05 06:58:32;;;;;;;17.00;2.47;;;7.40;99.90;;;;;;4974486;28;20045;-92
2023/01/05 07:00:58;;;;;;;15.65;2.78;;;7.40;99.90;;;;;;4959238;28;20035;-91
2023/01/05 07:03:24;;;;;;;9.57;2.25;;;7.40;99.90;;;;;;4958415;28;20030;-90
2023/01/05 07:05:51;;;;;;;17.48;2.65;;;7.30;99.90;;;;;;4974906;28;20061;-90
2023/01/05 07:08:16;;;;;;;14.77;2.80;;;7.40;99.90;;;;;;4958480;28;20035;-90
2023/01/05 07:10:42;;;;;;;18.67;2.63;;;7.40;99.90;;;;;;4958500;28;20030;-90
2023/01/05 07:13:08;;;;;;;15.50;2.40;;;7.40;99.90;;;;;;4958291;28;20034;-91
2023/01/05 07:15:34;;;;;;;26.00;5.03;;;7.40;99.90;;;;;;4958097;28;20039;-91
2023/01/05 07:21:47;;;;;;;22.33;3.55;;;7.40;99.90;;;;;;4975810;28;20037;-90
2023/01/05 07:24:13;;;;;;;20.17;3.38;;;7.40;99.90;;;;;;4958304;28;20125;-91
2023/01/05 07:26:38;;;;;;;24.42;3.65;;;7.40;99.90;;;;;;4958442;28;20614;-91
2023/01/05 07:29:04;;;;;;;37.08;5.03;;;7.40;99.90;;;;;;4958103;28;20034;-92
2023/01/05 07:31:30;;;;;;;19.27;3.38;;;7.40;99.90;;;;;;4958222;28;20080;-92
2023/01/05 07:37:43;;;;;;;19.30;2.90;;;7.40;99.90;;;;;;4975807;28;20041;-91
2023/01/05 07:40:09;;;;;;;29.80;3.25;;;7.40;99.90;;;;;;4958006;28;20035;-89
2023/01/05 07:42:35;;;;;;;20.13;3.22;;;7.40;99.90;;;;;;4958258;28;20068;-91
2023/01/05 07:45:02;;;;;;;12.77;3.00;;;7.40;99.90;;;;;;4972764;28;20144;-91
2023/01/05 07:47:28;;;;;;;23.83;3.78;;;7.40;99.90;;;;;;4958841;28;20034;-91
2023/01/05 07:49:53;;;;;;;18.15;2.97;;;7.40;99.90;;;;;;4958696;28;20015;-92
2023/01/05 07:52:19;;;;;;;20.42;3.05;;;7.40;99.90;;;;;;4958678;28;20038;-90
2023/01/05 07:58:40;;;;;;;24.23;3.55;;;7.50;99.90;;;;;;4976189;28;20159;-91
2023/01/05 08:01:08;;;;;;;24.17;3.38;;;7.50;99.90;;;;;;4959374;28;20096;-93
2023/01/05 08:03:34;;;;;;;14.43;2.97;;;7.50;99.90;;;;;;4975433;28;20417;-91
2023/01/05 08:06:05;;;;;;;15.32;2.60;;;7.40;99.90;;;;;;4959781;28;20035;-91
2023/01/05 08:08:30;;;;;;;24.13;2.97;;;7.50;99.90;;;;;;4957697;28;20038;-91
2023/01/05 08:10:56;;;;;;;23.50;3.90;;;7.60;99.90;;;;;;4957622;28;20556;-92
2023/01/05 08:16:06;;;;;;;19.33;4.65;;;7.50;99.90;;;;;;4973916;28;20039;-91
2023/01/05 08:18:32;;;;;;;21.73;6.30;;;7.50;99.90;;;;;;4957766;28;20049;-92
2023/01/05 08:21:03;;;;;;;21.45;5.75;;;7.60;99.90;;;;;;4958135;28;20034;-92
2023/01/05 08:23:30;;;;;;;19.33;3.92;;;7.60;99.90;;;;;;4973978;28;20072;-91
2023/01/05 08:25:56;;;;;;;18.45;2.67;;;7.60;99.90;;;;;;5075512;28;20077;-91
2023/01/05 08:28:23;;;;;;;14.32;3.45;;;7.70;99.90;;;;;;4957309;28;20027;-91
2023/01/05 08:30:49;;;;;;;22.77;3.38;;;7.70;99.90;;;;;;5075391;28;20026;-93
2023/01/05 08:33:15;;;;;;;20.55;2.83;;;7.70;99.90;;;;;;4957130;28;20492;-91
2023/01/05 08:39:28;;;;;;;31.83;4.43;;;7.80;99.90;;;;;;4974912;28;20516;-92
2023/01/05 08:41:53;;;;;;;17.58;3.15;;;7.80;99.90;;;;;;4957489;28;20035;-92
2023/01/05 08:44:19;;;;;;;11.60;2.78;;;7.80;99.90;;;;;;4957315;28;20038;-91
2023/01/05 08:46:45;;;;;;;14.77;3.97;;;7.80;99.90;;;;;;4957192;28;20118;-91
2023/01/05 08:49:11;;;;;;;18.67;2.90;;;7.90;99.90;;;;;;4973399;28;20038;-91
2023/01/05 08:51:37;;;;;;;24.33;2.95;;;7.80;99.90;;;;;;4956841;28;20056;-91
2023/01/05 08:54:03;;;;;;;22.85;3.22;;;7.80;99.90;;;;;;4957144;28;20486;-92
2023/01/05 08:56:29;;;;;;;18.70;3.83;;;7.80;99.90;;;;;;4956875;28;20031;-91
2023/01/05 08:58:54;;;;;;;21.75;3.17;;;7.90;99.90;;;;;;4957228;28;20418;-92
2023/01/05 09:01:20;;;;;;;15.43;3.97;;;8.00;99.90;;;;;;4957070;28;20030;-92
2023/01/05 09:03:47;;;;;;;16.58;2.88;;;8.00;99.90;;;;;;4956777;28;20035;-92
2023/01/05 09:06:13;;;;;;;22.27;3.63;;;8.10;99.90;;;;;;4957065;28;20386;-92
2023/01/05 09:08:41;;;;;;;20.80;3.13;;;8.10;99.90;;;;;;4956791;28;20038;-92
2023/01/05 09:11:16;;;;;;;18.02;2.80;;;8.10;99.90;;;;;;4957097;28;20096;-91
2023/01/05 09:14:03;;;;;;;18.15;3.22;;;8.10;99.90;;;;;;4956901;28;20040;-92
2023/01/05 09:16:32;;;;;;;16.02;3.35;;;8.10;99.90;;;;;;4956750;28;20035;-91
2023/01/05 09:18:58;;;;;;;19.48;2.92;;;8.20;99.90;;;;;;4973004;28;20031;-91
2023/01/05 09:21:24;;;;;;;21.45;2.92;;;8.20;99.90;;;;;;4956744;28;20030;-91
2023/01/05 09:23:50;;;;;;;20.33;2.70;;;8.30;99.90;;;;;;4972836;28;20034;-91
2023/01/05 09:26:16;;;;;;;18.58;4.43;;;8.40;99.90;;;;;;4957316;28;20113;-91
2023/01/05 09:32:29;;;;;;;13.05;2.30;;;8.50;99.90;;;;;;4983400;28;20058;-91
2023/01/05 09:34:54;;;;;;;12.63;3.13;;;8.60;99.90;;;;;;4956607;28;20051;-92
2023/01/05 09:37:20;;;;;;;19.73;2.92;;;8.50;99.90;;;;;;4956959;28;20031;-90
2023/01/05 09:39:46;;;;;;;15.32;2.60;;;8.60;99.90;;;;;;4956875;28;20069;-91
2023/01/05 09:42:17;;;;;;;16.73;3.40;;;8.60;99.90;;;;;;4956643;28;20517;-90
2023/01/05 09:44:53;;;;;;;21.02;4.45;;;8.70;99.90;;;;;;4972483;28;20034;-91
2023/01/05 09:47:26;;;;;;;24.52;3.22;;;8.70;99.90;;;;;;4956914;28;20045;-89
2023/01/05 09:49:53;;;;;;;15.40;3.58;;;8.60;99.90;;;;;;4956123;28;20031;-89
2023/01/05 09:52:21;;;;;;;24.67;3.13;;;8.40;99.90;;;;;;4956481;28;20031;-91
2023/01/05 09:54:59;;;;;;;25.02;3.72;;;8.30;99.90;;;;;;4956281;28;20035;-91
2023/01/05 09:57:27;;;;;;;20.75;4.18;;;8.20;99.90;;;;;;4956236;28;20129;-91
2023/01/05 09:59:57;;;;;;;17.38;5.13;;;8.20;99.90;;;;;;4956130;28;20031;-89
2023/01/05 10:02:38;;;;;;;21.52;3.20;;;8.30;99.90;;;;;;4956373;28;20031;-91
2023/01/05 10:05:05;;;;;;;32.03;9.15;;;8.30;99.90;;;;;;4956060;28;20060;-91
2023/01/05 10:07:46;;;;;;;25.60;5.88;;;8.40;99.90;;;;;;4971486;28;20065;-91
2023/01/05 10:10:44;;;;;;;33.80;8.90;;;8.40;99.90;;;;;;4956302;28;20038;-91
2023/01/05 10:13:32;;;;;;;28.80;4.63;;;8.40;99.90;;;;;;4972158;28;20034;-91
2023/01/05 10:15:57;;;;;;;26.17;8.60;;;8.40;99.90;;;;;;4955938;28;20424;-90
2023/01/05 10:18:26;;;;;;;36.88;9.85;;;8.40;99.90;;;;;;4956067;28;20051;-91
2023/01/05 10:21:07;;;;;;;27.60;4.25;;;8.40;99.90;;;;;;4955918;28;20038;-92
2023/01/05 10:24:02;;;;;;;20.93;4.10;;;8.30;99.90;;;;;;4956239;28;20038;-90
2023/01/05 10:26:40;;;;;;;26.15;5.32;;;8.40;99.90;;;;;;4971791;28;20471;-90
2023/01/05 10:29:19;;;;;;;27.67;3.78;;;8.50;99.90;;;;;;4971747;28;20112;-91
2023/01/05 10:31:51;;;;;;;23.88;4.18;;;8.50;99.90;;;;;;4971987;28;20038;-90
2023/01/05 10:34:38;;;;;;;15.20;3.47;;;8.70;99.90;;;;;;4955874;28;20031;-90
2023/01/05 10:37:59;;;;;;;19.60;4.90;;;8.70;99.90;;;;;;4956086;28;20027;-91
2023/01/05 10:40:43;;;;;;;27.77;4.18;;;8.70;99.90;;;;;;5056728;28;20027;-91
2023/01/05 10:43:34;;;;;;;23.90;4.30;;;8.60;99.90;;;;;;4972421;28;20066;-91
2023/01/05 10:46:01;;;;;;;26.50;4.03;;;8.70;99.90;;;;;;4956051;28;20030;-92
2023/01/05 10:48:32;;;;;;;18.38;3.50;;;8.70;99.90;;;;;;4955958;28;20130;-91
2023/01/05 10:50:59;;;;;;;29.65;4.40;;;8.80;99.90;;;;;;4972887;28;20088;-91
2023/01/05 10:53:27;;;;;;;21.75;3.92;;;8.80;99.90;;;;;;4955715;28;20390;-91
2023/01/05 10:55:56;;;;;;;27.48;3.72;;;8.80;99.90;;;;;;4955960;28;20396;-92
2023/01/05 10:58:23;;;;;;;16.23;3.53;;;8.70;99.90;;;;;;4956072;28;20030;-90
2023/01/05 11:00:49;;;;;;;32.10;4.63;;;8.80;99.90;;;;;;4956068;28;20035;-91
2023/01/05 11:03:18;;;;;;;25.13;3.65;;;8.60;99.90;;;;;;4956077;28;20474;-91
2023/01/05 11:05:46;;;;;;;28.40;4.93;;;8.60;99.90;;;;;;4956230;28;20035;-91
2023/01/05 11:08:26;;;;;;;19.10;4.40;;;8.60;99.90;;;;;;4955002;28;20031;-91
2023/01/05 11:11:04;;;;;;;30.50;3.80;;;8.70;99.90;;;;;;4955758;28;20122;-90
2023/01/05 11:13:32;;;;;;;15.50;3.20;;;8.70;99.90;;;;;;4955794;28;20160;-91
2023/01/05 11:16:39;;;;;;;22.80;3.75;;;8.80;99.90;;;;;;4971562;28;20390;-90
2023/01/05 11:19:11;;;;;;;23.83;4.22;;;8.80;99.90;;;;;;4972805;28;20487;-90
2023/01/05 11:21:46;;;;;;;22.77;3.97;;;8.90;99.90;;;;;;4959110;28;20038;-91
2023/01/05 11:24:23;;;;;;;20.17;4.28;;;9.00;99.90;;;;;;4959367;28;20034;-89
2023/01/05 11:26:55;;;;;;;20.98;3.88;;;9.00;99.90;;;;;;4959107;28;20038;-90
2023/01/05 11:29:35;;;;;;;14.73;3.75;;;8.90;99.90;;;;;;4958955;28;20478;-91
2023/01/05 11:32:16;;;;;;;30.65;4.88;;;8.90;99.90;;;;;;4958938;28;20054;-91
2023/01/05 11:34:50;;;;;;;25.88;4.35;;;8.90;99.90;;;;;;4958909;28;20043;-90
2023/01/05 11:37:27;;;;;;;21.40;4.53;;;9.00;99.90;;;;;;4974648;28;20547;-90
2023/01/05 11:39:56;;;;;;;21.48;3.75;;;9.00;99.90;;;;;;4958609;28;20520;-90
2023/01/05 11:42:22;;;;;;;19.60;3.63;;;9.00;99.90;;;;;;4958866;28;20035;-91
2023/01/05 11:44:58;;;;;;;17.38;3.10;;;9.10;99.90;;;;;;4958613;28;20083;-90
2023/01/05 11:47:42;;;;;;;23.63;4.25;;;9.10;99.90;;;;;;4958649;28;20137;-90
2023/01/05 11:50:16;;;;;;;25.30;3.53;;;9.10;99.90;;;;;;4974714;28;20432;-91
2023/01/05 11:52:49;;;;;;;20.02;3.97;;;9.10;99.90;;;;;;4958174;28;20039;-91
2023/01/05 11:55:57;;;;;;;23.38;4.20;;;9.20;99.90;;;;;;4958350;28;20073;-90
2023/01/05 11:58:33;;;;;;;45.72;6.35;;;9.20;99.90;;;;;;4958185;28;20058;-92
2023/01/05 12:01:36;;;;;;;23.30;4.60;;;9.20;99.90;;;;;;4958776;28;20035;-91
2023/01/05 12:04:23;;;;;;;21.20;4.82;;;9.30;99.90;;;;;;4959215;28;20134;-91
2023/01/05 12:07:03;;;;;;;22.92;4.30;;;9.20;99.90;;;;;;5058918;28;20049;-91
2023/01/05 12:09:33;;;;;;;20.35;4.35;;;9.20;99.90;;;;;;4957850;28;20034;-90
2023/01/05 12:12:02;;;;;;;30.58;6.25;;;9.20;99.90;;;;;;4957895;28;20121;-89
2023/01/05 12:15:05;;;;;;;24.77;6.10;;;9.30;99.90;;;;;;4958095;28;20030;-90
2023/01/05 12:17:52;;;;;;;23.15;3.85;;;9.30;99.90;;;;;;4957697;28;20398;-90
2023/01/05 12:20:32;;;;;;;26.73;4.45;;;9.30;99.90;;;;;;4957804;28;20039;-90
2023/01/05 12:23:14;;;;;;;17.10;3.40;;;9.30;99.90;;;;;;4957546;28;20041;-92
2023/01/05 12:25:51;;;;;;;23.23;4.30;;;9.40;99.90;;;;;;4973742;28;20486;-91
2023/01/05 12:28:36;;;;;;;24.85;4.07;;;9.30;99.90;;;;;;4957381;28;20086;-91
2023/01/05 12:31:49;;;;;;;26.17;4.97;;;9.20;99.90;;;;;;4957140;28;20022;-92
2023/01/05 12:34:30;;;;;;;21.88;4.68;;;9.20;99.90;;;;;;4994624;28;20128;-91
2023/01/05 12:37:18;;;;;;;17.25;3.33;;;9.10;99.90;;;;;;4958153;28;20474;-91
2023/01/05 12:40:29;;;;;;;30.17;4.88;;;9.10;99.90;;;;;;4957337;28;20027;-90
2023/01/05 12:42:58;;;;;;;29.05;4.97;;;9.10;99.90;;;;;;4968360;28;20474;-91
2023/01/05 12:45:45;;;;;;;23.27;5.15;;;9.10;99.90;;;;;;4957601;28;20075;-91
2023/01/05 12:48:29;;;;;;;26.90;5.60;;;9.00;99.90;;;;;;5058551;28;20053;-90
2023/01/05 12:51:08;;;;;;;27.23;4.75;;;9.00;99.90;;;;;;4958137;28;20027;-90
2023/01/05 12:53:34;;;;;;;30.58;5.22;;;9.00;99.90;;;;;;4957265;28;20026;-90
2023/01/05 12:56:11;;;;;;;32.15;5.10;;;9.00;99.90;;;;;;4957071;28;20034;-90
2023/01/05 12:58:40;;;;;;;25.08;4.55;;;9.00;99.90;;;;;;4957563;28;20031;-91
2023/01/05 13:01:20;;;;;;;25.13;4.78;;;9.00;99.90;;;;;;4957209;28;20031;-91
2023/01/05 13:03:57;;;;;;;17.42;3.53;;;9.10;99.90;;;;;;4957138;28;20031;-90
2023/01/05 13:06:25;;;;;;;37.38;5.47;;;9.00;99.90;;;;;;4956912;28;20042;-91
2023/01/05 13:09:20;;;;;;;18.67;4.43;;;9.20;99.90;;;;;;4957004;28;20037;-91
2023/01/05 13:12:07;;;;;;;21.63;4.15;;;9.20;99.90;;;;;;4960717;28;20136;-91
2023/01/05 13:14:35;;;;;;;35.08;4.47;;;9.30;99.90;;;;;;4956602;28;20129;-90
2023/01/05 13:17:29;;;;;;;28.65;5.40;;;9.20;99.90;;;;;;4973875;28;20046;-90
2023/01/05 13:20:03;;;;;;;32.45;6.07;;;9.20;99.90;;;;;;4957632;28;20081;-91
2023/01/05 13:22:34;;;;;;;22.42;3.55;;;9.20;99.90;;;;;;4957007;28;20145;-92
2023/01/05 13:25:21;;;;;;;25.75;3.92;;;9.20;99.90;;;;;;4972970;28;20031;-91
2023/01/05 13:27:46;;;;;;;24.92;5.70;;;9.20;99.90;;;;;;4973351;28;20034;-90
2023/01/05 13:30:32;;;;;;;28.60;4.63;;;9.10;99.90;;;;;;4956956;28;20130;-91
2023/01/05 13:33:32;;;;;;;30.25;4.05;;;9.10;99.90;;;;;;4956674;28;20048;-91
2023/01/05 13:36:24;;;;;;;21.00;4.43;;;9.00;99.90;;;;;;4956496;28;20031;-91
2023/01/05 13:39:36;;;;;;;22.33;3.63;;;9.00;99.90;;;;;;4972698;28;20054;-91
2023/01/05 13:42:21;;;;;;;18.10;4.07;;;8.90;99.90;;;;;;5000121;28;20397;-91
2023/01/05 13:45:34;;;;;;;25.50;4.07;;;9.00;99.90;;;;;;5074085;28;20039;-90
2023/01/05 13:48:36;;;;;;;23.98;3.47;;;8.90;99.90;;;;;;5057893;28;20042;-90
2023/01/05 13:51:22;;;;;;;19.98;3.63;;;8.90;99.90;;;;;;4956372;28;20042;-91
2023/01/05 13:53:50;;;;;;;27.58;4.50;;;8.90;99.90;;;;;;4956597;28;20027;-90
2023/01/05 13:56:25;;;;;;;18.55;4.13;;;8.90;99.90;;;;;;4956093;28;20129;-91
2023/01/05 13:59:01;;;;;;;26.65;3.90;;;8.90;99.90;;;;;;4956624;28;20430;-90
2023/01/05 14:01:41;;;;;;;20.75;4.03;;;8.90;99.90;;;;;;4956271;28;20066;-91
2023/01/05 14:04:23;;;;;;;21.75;4.70;;;8.90;99.90;;;;;;4956273;28;20489;-92
2023/01/05 14:06:53;;;;;;;18.33;3.28;;;8.90;99.90;;;;;;4972334;28;20039;-90
2023/01/05 14:09:38;;;;;;;27.08;4.25;;;8.80;99.90;;;;;;4956262;28;20579;-90
2023/01/05 14:12:07;;;;;;;32.05;5.38;;;8.80;99.90;;;;;;4956087;28;20035;-91
2023/01/05 14:15:01;;;;;;;25.88;5.35;;;8.70;99.90;;;;;;4956062;28;20034;-91